createdAt,value
2018-09-22T00:00:24.385Z,13.40
2018-09-22T00:02:52.975Z,13.40
2018-09-22T00:05:21.560Z,13.40
2018-09-22T00:07:50.148Z,13.40
2018-09-22T00:10:18.709Z,13.40
2018-09-22T00:12:47.311Z,13.50
2018-09-22T00:15:15.886Z,13.50
2018-09-22T00:17:44.498Z,13.50
2018-09-22T00:20:13.087Z,13.50
2018-09-22T00:22:41.679Z,13.40
2018-09-22T00:25:10.348Z,13.40
2018-09-22T00:27:38.994Z,13.30
2018-09-22T00:30:07.654Z,13.30
2018-09-22T00:32:36.213Z,13.30
2018-09-22T00:35:04.959Z,13.30
2018-09-22T00:37:33.622Z,13.30
2018-09-22T00:40:02.232Z,13.40
2018-09-22T00:42:30.801Z,13.30
2018-09-22T00:44:59.406Z,13.40
2018-09-22T00:47:28.021Z,13.30
2018-09-22T00:49:56.721Z,13.20
2018-09-22T00:52:25.289Z,13.10
2018-09-22T00:54:53.889Z,13.00
2018-09-22T00:57:22.520Z,13.00
2018-09-22T00:59:51.126Z,13.00
2018-09-22T01:02:19.735Z,13.00
2018-09-22T01:04:48.369Z,13.00
2018-09-22T01:07:17.004Z,13.00
2018-09-22T01:09:45.617Z,13.10
2018-09-22T01:12:14.209Z,13.10
2018-09-22T01:14:42.810Z,13.00
2018-09-22T01:17:11.394Z,13.10
2018-09-22T01:19:40.089Z,13.10
2018-09-22T01:22:08.671Z,13.10
2018-09-22T01:24:37.381Z,13.10
2018-09-22T01:27:06.018Z,13.10
2018-09-22T01:29:34.618Z,13.10
2018-09-22T01:32:03.551Z,13.10
2018-09-22T01:34:32.143Z,13.20
2018-09-22T01:37:00.728Z,13.20
2018-09-22T01:39:29.328Z,13.20
2018-09-22T01:41:57.902Z,13.20
2018-09-22T01:44:26.525Z,13.10
2018-09-22T01:46:55.220Z,13.10
2018-09-22T01:49:25.058Z,13.00
2018-09-22T01:51:53.628Z,13.00
2018-09-22T01:54:22.225Z,13.00
2018-09-22T01:56:50.803Z,12.90
2018-09-22T01:59:19.422Z,12.90
2018-09-22T02:01:48.054Z,12.90
2018-09-22T02:04:16.644Z,12.90
2018-09-22T02:06:45.218Z,12.90
2018-09-22T02:09:13.817Z,12.90
2018-09-22T02:11:42.452Z,12.90
2018-09-22T02:14:11.178Z,12.90
2018-09-22T02:16:39.748Z,12.90
2018-09-22T02:19:08.361Z,12.90
2018-09-22T02:21:37.109Z,12.90
2018-09-22T02:24:05.782Z,12.80
2018-09-22T02:26:34.474Z,12.80
2018-09-22T02:29:03.085Z,12.80
2018-09-22T02:31:31.722Z,12.80
2018-09-22T02:34:00.437Z,12.70
2018-09-22T02:36:29.047Z,12.70
2018-09-22T02:38:57.730Z,12.70
2018-09-22T02:41:26.342Z,12.60
2018-09-22T02:43:54.946Z,12.60
2018-09-22T02:46:23.573Z,12.60
2018-09-22T02:48:52.181Z,12.60
2018-09-22T02:51:20.799Z,12.50
2018-09-22T02:53:49.459Z,12.50
2018-09-22T02:56:18.101Z,12.40
2018-09-22T02:58:46.709Z,12.40
2018-09-22T03:01:15.294Z,12.40
2018-09-22T03:03:43.961Z,12.40
2018-09-22T03:06:12.634Z,12.40
2018-09-22T03:08:41.262Z,12.40
2018-09-22T03:11:09.824Z,12.50
2018-09-22T03:13:38.452Z,12.40
2018-09-22T03:16:07.028Z,12.40
2018-09-22T03:18:35.623Z,12.40
2018-09-22T03:21:04.198Z,12.40
2018-09-22T03:23:32.803Z,12.40
2018-09-22T03:26:01.405Z,12.30
2018-09-22T03:28:30.050Z,12.30
2018-09-22T03:30:58.682Z,12.20
2018-09-22T03:33:27.302Z,12.20
2018-09-22T03:35:55.893Z,12.20
2018-09-22T03:38:24.498Z,12.20
2018-09-22T03:40:53.081Z,12.10
2018-09-22T03:43:21.730Z,12.10
2018-09-22T03:45:51.216Z,12.00
2018-09-22T03:48:19.829Z,12.00
2018-09-22T03:50:48.450Z,12.10
2018-09-22T03:53:17.046Z,12.00
2018-09-22T03:55:45.641Z,12.10
2018-09-22T03:58:14.220Z,12.00
2018-09-22T04:00:42.818Z,12.10
2018-09-22T04:03:11.390Z,12.10
2018-09-22T04:05:39.984Z,12.10
2018-09-22T04:08:08.622Z,12.00
2018-09-22T04:10:37.213Z,12.10
2018-09-22T04:13:05.786Z,12.10
2018-09-22T04:15:34.430Z,12.10
2018-09-22T04:18:03.066Z,12.20
2018-09-22T04:20:31.665Z,12.20
2018-09-22T04:23:00.294Z,12.10
2018-09-22T04:25:28.992Z,12.10
2018-09-22T04:27:57.781Z,12.10
2018-09-22T04:30:26.383Z,12.10
2018-09-22T04:32:55.014Z,12.10
2018-09-22T04:35:23.583Z,12.10
2018-09-22T04:37:52.531Z,12.10
2018-09-22T04:40:21.114Z,12.10
2018-09-22T04:42:49.730Z,12.10
2018-09-22T04:45:18.315Z,12.20
2018-09-22T04:47:47.001Z,12.10
2018-09-22T04:50:15.603Z,12.10
2018-09-22T04:52:44.317Z,12.20
2018-09-22T04:55:13.010Z,12.10
2018-09-22T04:57:43.350Z,12.10
2018-09-22T05:00:11.990Z,12.10
2018-09-22T05:02:40.595Z,12.10
2018-09-22T05:05:09.222Z,12.10
2018-09-22T05:07:37.889Z,12.10
2018-09-22T05:10:06.514Z,12.10
2018-09-22T05:12:35.085Z,12.10
2018-09-22T05:15:03.802Z,12.00
2018-09-22T05:17:32.422Z,12.10
2018-09-22T05:20:01.095Z,12.10
2018-09-22T05:22:29.667Z,12.10
2018-09-22T05:24:58.257Z,12.00
2018-09-22T05:27:26.868Z,12.00
2018-09-22T05:29:55.463Z,12.00
2018-09-22T05:32:24.180Z,12.00
2018-09-22T05:34:52.757Z,11.90
2018-09-22T05:37:21.343Z,11.90
2018-09-22T05:39:50.122Z,11.90
2018-09-22T05:42:18.720Z,11.80
2018-09-22T05:44:47.468Z,11.90
2018-09-22T05:47:16.127Z,11.90
2018-09-22T05:49:44.700Z,11.90
2018-09-22T05:52:13.318Z,11.90
2018-09-22T05:54:41.916Z,11.90
2018-09-22T05:57:10.654Z,11.90
2018-09-22T05:59:39.261Z,11.90
2018-09-22T06:02:07.899Z,11.90
2018-09-22T06:04:36.502Z,11.80
2018-09-22T06:07:05.765Z,11.80
2018-09-22T06:09:34.463Z,11.80
2018-09-22T06:12:03.107Z,11.80
2018-09-22T06:14:31.774Z,11.90
2018-09-22T06:17:00.369Z,11.90
2018-09-22T06:19:29.041Z,11.90
2018-09-22T06:21:59.205Z,11.90
2018-09-22T06:24:29.635Z,11.90
2018-09-22T06:26:58.241Z,12.00
2018-09-22T06:29:26.854Z,12.10
2018-09-22T06:31:56.740Z,12.10
2018-09-22T06:34:25.419Z,12.20
2018-09-22T06:36:54.018Z,12.20
2018-09-22T06:39:22.650Z,12.20
2018-09-22T06:41:51.253Z,12.20
2018-09-22T06:44:19.902Z,12.20
2018-09-22T06:46:48.543Z,12.20
2018-09-22T06:49:17.165Z,12.30
2018-09-22T06:51:45.795Z,12.30
2018-09-22T06:54:14.378Z,12.40
2018-09-22T06:56:42.994Z,12.40
2018-09-22T06:59:11.581Z,12.50
2018-09-22T07:01:40.403Z,12.40
2018-09-22T07:04:09.111Z,12.50
2018-09-22T07:06:38.753Z,12.60
2018-09-22T07:09:07.629Z,12.60
2018-09-22T07:11:36.269Z,12.70
2018-09-22T07:14:05.015Z,12.70
2018-09-22T07:16:33.753Z,12.70
2018-09-22T07:19:02.435Z,12.80
2018-09-22T07:21:36.303Z,12.90
2018-09-22T07:24:05.008Z,13.00
2018-09-22T07:26:33.625Z,13.00
2018-09-22T07:29:02.579Z,13.00
2018-09-22T07:31:31.308Z,13.10
2018-09-22T07:33:59.921Z,13.10
2018-09-22T07:36:28.495Z,13.20
2018-09-22T07:38:57.142Z,13.20
2018-09-22T07:41:25.822Z,13.20
2018-09-22T07:43:54.424Z,13.20
2018-09-22T07:46:23.882Z,13.30
2018-09-22T07:48:53.273Z,13.30
2018-09-22T07:51:21.929Z,13.40
2018-09-22T07:53:50.562Z,13.40
2018-09-22T07:56:19.142Z,13.50
2018-09-22T07:58:47.765Z,13.60
2018-09-22T08:01:16.402Z,13.60
2018-09-22T08:03:45.258Z,13.60
2018-09-22T08:06:13.837Z,13.70
2018-09-22T08:08:42.421Z,13.80
2018-09-22T08:11:10.990Z,13.90
2018-09-22T08:13:39.564Z,13.90
2018-09-22T08:16:08.181Z,13.90
2018-09-22T08:18:36.763Z,13.90
2018-09-22T08:21:05.695Z,13.90
2018-09-22T08:23:34.910Z,14.00
2018-09-22T08:26:03.604Z,14.00
2018-09-22T08:28:32.282Z,14.10
2018-09-22T08:31:00.909Z,14.10
2018-09-22T08:33:29.494Z,14.10
2018-09-22T08:35:58.249Z,14.10
2018-09-22T08:38:26.822Z,14.10
2018-09-22T08:40:55.446Z,14.20
2018-09-22T08:43:24.111Z,14.20
2018-09-22T08:45:52.746Z,14.30
2018-09-22T08:48:21.975Z,14.30
2018-09-22T08:50:50.562Z,14.40
2018-09-22T08:53:19.195Z,14.40
2018-09-22T08:55:48.200Z,14.50
2018-09-22T08:58:16.843Z,14.60
2018-09-22T09:00:45.438Z,14.80
2018-09-22T09:03:14.023Z,15.00
2018-09-22T09:05:42.756Z,15.20
2018-09-22T09:08:11.762Z,15.40
2018-09-22T09:10:40.334Z,15.60
2018-09-22T09:13:09.274Z,15.90
2018-09-22T09:15:37.924Z,16.10
2018-09-22T09:18:06.625Z,16.30
2018-09-22T09:20:35.333Z,16.30
2018-09-22T09:23:03.922Z,16.40
2018-09-22T09:25:32.565Z,16.40
2018-09-22T09:28:01.189Z,16.60
2018-09-22T09:30:29.783Z,16.80
2018-09-22T09:32:58.362Z,16.90
2018-09-22T09:35:27.046Z,17.30
2018-09-22T09:38:01.957Z,17.30
2018-09-22T09:40:30.625Z,17.20
2018-09-22T09:42:59.264Z,17.40
2018-09-22T09:45:27.870Z,17.50
2018-09-22T09:47:56.509Z,17.60
2018-09-22T09:50:25.093Z,17.50
2018-09-22T09:52:53.680Z,17.40
2018-09-22T09:55:22.285Z,17.30
2018-09-22T09:57:50.898Z,17.30
2018-09-22T10:00:23.729Z,17.30
2018-09-22T10:02:52.432Z,17.30
2018-09-22T10:05:27.914Z,17.30
2018-09-22T10:07:56.595Z,17.10
2018-09-22T10:10:25.183Z,17.00
2018-09-22T10:12:53.762Z,17.00
2018-09-22T10:15:22.610Z,16.80
2018-09-22T10:17:51.190Z,16.80
2018-09-22T10:20:19.847Z,16.70
2018-09-22T10:22:48.391Z,16.70
2018-09-22T10:25:17.030Z,16.60
2018-09-22T10:27:45.697Z,16.50
2018-09-22T10:30:14.404Z,16.60
2018-09-22T10:32:42.978Z,16.60
2018-09-22T10:35:11.588Z,16.70
2018-09-22T10:37:40.169Z,17.00
2018-09-22T10:40:08.790Z,17.20
2018-09-22T10:42:37.393Z,17.40
2018-09-22T10:45:06.925Z,17.60
2018-09-22T10:47:35.549Z,17.40
2018-09-22T10:50:04.206Z,17.40
2018-09-22T10:52:32.899Z,17.40
2018-09-22T10:55:01.719Z,17.30
2018-09-22T10:57:30.339Z,17.30
2018-09-22T10:59:58.929Z,17.20
2018-09-22T11:02:27.541Z,17.20
2018-09-22T11:04:56.158Z,17.00
2018-09-22T11:07:24.794Z,16.90
2018-09-22T11:09:59.905Z,16.80
2018-09-22T11:12:28.567Z,16.80
2018-09-22T11:14:57.205Z,16.70
2018-09-22T11:17:25.949Z,16.80
2018-09-22T11:19:54.626Z,16.70
2018-09-22T11:22:23.221Z,16.60
2018-09-22T11:24:51.797Z,16.60
2018-09-22T11:27:20.412Z,16.60
2018-09-22T11:29:49.003Z,16.60
2018-09-22T11:32:17.711Z,16.50
2018-09-22T11:34:46.317Z,16.60
2018-09-22T11:37:15.015Z,16.70
2018-09-22T11:39:43.750Z,16.70
2018-09-22T11:42:12.393Z,16.80
2018-09-22T11:44:40.989Z,16.80
2018-09-22T11:47:09.697Z,17.00
2018-09-22T11:49:38.366Z,17.00
2018-09-22T11:52:07.098Z,16.90
2018-09-22T11:54:35.872Z,17.00
2018-09-22T11:57:04.523Z,17.10
2018-09-22T11:59:33.215Z,17.10
2018-09-22T12:02:01.943Z,17.30
2018-09-22T12:04:30.516Z,17.40
2018-09-22T12:06:59.157Z,17.40
2018-09-22T12:09:27.746Z,17.30
2018-09-22T12:11:57.201Z,17.20
2018-09-22T12:14:25.795Z,17.10
2018-09-22T12:16:54.397Z,17.00
2018-09-22T12:19:23.074Z,17.00
2018-09-22T12:21:51.750Z,17.10
2018-09-22T12:24:20.362Z,17.00
2018-09-22T12:26:49.022Z,16.90
2018-09-22T12:29:17.617Z,16.80
2018-09-22T12:31:46.261Z,16.80
2018-09-22T12:34:14.821Z,16.70
2018-09-22T12:36:43.463Z,16.80
2018-09-22T12:39:12.896Z,16.90
2018-09-22T12:41:41.563Z,16.90
2018-09-22T12:44:10.399Z,16.90
2018-09-22T12:46:38.964Z,16.90
2018-09-22T12:49:07.600Z,17.00
2018-09-22T12:51:36.187Z,17.10
2018-09-22T12:54:04.798Z,17.20
2018-09-22T12:56:33.490Z,17.30
2018-09-22T12:59:02.165Z,17.40
2018-09-22T13:01:31.006Z,17.40
2018-09-22T13:04:00.384Z,17.40
2018-09-22T13:06:29.041Z,17.30
2018-09-22T13:08:57.674Z,17.30
2018-09-22T13:11:26.553Z,17.30
2018-09-22T13:13:55.135Z,17.10
2018-09-22T13:16:23.743Z,17.00
2018-09-22T13:18:52.346Z,16.80
2018-09-22T13:21:20.977Z,16.80
2018-09-22T13:23:49.550Z,16.60
2018-09-22T13:26:18.141Z,16.50
2018-09-22T13:28:46.742Z,16.40
2018-09-22T13:31:17.322Z,16.30
2018-09-22T13:33:45.922Z,16.20
2018-09-22T13:36:14.557Z,16.20
2018-09-22T13:38:43.176Z,16.20
2018-09-22T13:41:11.777Z,16.10
2018-09-22T13:43:40.421Z,16.10
2018-09-22T13:46:09.253Z,15.90
2018-09-22T13:48:37.946Z,15.60
2018-09-22T13:51:07.159Z,15.10
2018-09-22T13:53:35.770Z,14.60
2018-09-22T13:56:04.379Z,13.80
2018-09-22T13:58:33.650Z,13.50
2018-09-22T14:01:02.301Z,13.10
2018-09-22T14:03:30.986Z,13.00
2018-09-22T14:05:59.651Z,12.70
2018-09-22T14:08:28.251Z,12.70
2018-09-22T14:10:56.894Z,12.50
2018-09-22T14:13:25.569Z,12.50
2018-09-22T14:15:54.186Z,12.40
2018-09-22T14:18:22.774Z,12.40
2018-09-22T14:20:51.469Z,12.30
2018-09-22T14:23:20.958Z,12.30
2018-09-22T14:25:49.688Z,12.30
2018-09-22T14:28:18.303Z,12.40
2018-09-22T14:30:46.914Z,12.30
2018-09-22T14:33:15.526Z,12.40
2018-09-22T14:35:44.142Z,12.50
2018-09-22T14:38:12.739Z,12.60
2018-09-22T14:40:41.373Z,12.50
2018-09-22T14:43:09.969Z,12.60
2018-09-22T14:45:38.602Z,12.60
2018-09-22T14:48:07.307Z,12.70
2018-09-22T14:50:35.886Z,12.70
2018-09-22T14:53:04.543Z,12.80
2018-09-22T14:55:33.149Z,12.80
2018-09-22T14:58:01.833Z,12.80
2018-09-22T15:00:30.461Z,12.80
2018-09-22T15:02:59.033Z,12.80
2018-09-22T15:05:27.619Z,12.80
2018-09-22T15:07:56.350Z,12.70
2018-09-22T15:10:24.962Z,12.60
2018-09-22T15:12:53.845Z,12.60
2018-09-22T15:15:22.636Z,12.60
2018-09-22T15:17:51.321Z,12.50
2018-09-22T15:20:19.936Z,12.50
2018-09-22T15:22:48.526Z,12.50
2018-09-22T15:25:17.214Z,12.50
2018-09-22T15:27:45.830Z,12.50
2018-09-22T15:30:14.413Z,12.40
2018-09-22T15:32:43.023Z,12.50
2018-09-22T15:35:11.630Z,12.50
2018-09-22T15:37:40.240Z,12.50
2018-09-22T15:40:08.806Z,12.40
2018-09-22T15:42:37.785Z,12.40
2018-09-22T15:45:07.009Z,12.40
2018-09-22T15:47:35.659Z,12.40
2018-09-22T15:50:04.495Z,12.30
2018-09-22T15:52:33.074Z,12.40
2018-09-22T15:55:01.685Z,12.50
2018-09-22T15:57:30.268Z,12.50
2018-09-22T15:59:58.871Z,12.50
2018-09-22T16:02:27.474Z,12.50
2018-09-22T16:04:56.112Z,12.50
2018-09-22T16:07:25.050Z,12.50
2018-09-22T16:09:53.626Z,12.40
2018-09-22T16:12:23.540Z,12.50
2018-09-22T16:14:52.214Z,12.50
2018-09-22T16:17:22.429Z,12.40
2018-09-22T16:19:51.337Z,12.50
2018-09-22T16:22:19.926Z,12.50
2018-09-22T16:24:48.521Z,12.50
2018-09-22T16:27:17.243Z,12.40
2018-09-22T16:29:45.743Z,12.50
2018-09-22T16:32:14.372Z,12.50
2018-09-22T16:34:42.996Z,12.40
2018-09-22T16:37:11.645Z,12.50
2018-09-22T16:39:40.238Z,12.50
2018-09-22T16:42:08.928Z,12.40
2018-09-22T16:44:37.526Z,12.40
2018-09-22T16:47:06.217Z,12.30
2018-09-22T16:49:34.934Z,12.30
2018-09-22T16:52:03.597Z,12.30
2018-09-22T16:54:32.190Z,12.30
2018-09-22T16:57:00.885Z,12.30
2018-09-22T16:59:29.559Z,12.20
2018-09-22T17:01:58.310Z,12.10
2018-09-22T17:04:26.930Z,12.10
2018-09-22T17:06:55.519Z,12.00
2018-09-22T17:09:24.110Z,12.00
2018-09-22T17:11:52.813Z,12.00
2018-09-22T17:14:21.410Z,11.90
2018-09-22T17:16:50.097Z,11.90
2018-09-22T17:19:18.738Z,11.90
2018-09-22T17:21:47.359Z,11.90
2018-09-22T17:24:15.962Z,11.90
2018-09-22T17:26:44.644Z,11.90
2018-09-22T17:29:13.330Z,11.80
2018-09-22T17:31:42.020Z,11.70
2018-09-22T17:34:10.596Z,11.70
2018-09-22T17:36:39.171Z,11.70
2018-09-22T17:39:09.325Z,11.70
2018-09-22T17:41:37.916Z,11.70
2018-09-22T17:44:07.162Z,11.70
2018-09-22T17:46:35.764Z,11.60
2018-09-22T17:49:04.419Z,11.70
2018-09-22T17:51:33.027Z,11.60
2018-09-22T17:54:01.633Z,11.60
2018-09-22T17:56:30.235Z,11.50
2018-09-22T17:58:58.842Z,11.40
2018-09-22T18:01:27.423Z,11.40
2018-09-22T18:03:56.501Z,11.40
2018-09-22T18:06:25.122Z,11.40
2018-09-22T18:08:53.778Z,11.30
2018-09-22T18:11:22.450Z,11.40
2018-09-22T18:13:51.106Z,11.40
2018-09-22T18:16:19.766Z,11.30
2018-09-22T18:18:48.365Z,11.40
2018-09-22T18:21:17.023Z,11.30
2018-09-22T18:23:45.687Z,11.30
2018-09-22T18:26:14.257Z,11.30
2018-09-22T18:28:42.873Z,11.20
2018-09-22T18:31:11.459Z,11.20
2018-09-22T18:33:40.025Z,11.20
2018-09-22T18:36:08.660Z,11.20
2018-09-22T18:38:37.293Z,11.20
2018-09-22T18:41:05.881Z,11.10
2018-09-22T18:43:34.553Z,11.20
2018-09-22T18:46:03.171Z,11.30
2018-09-22T18:48:32.102Z,11.20
2018-09-22T18:51:00.849Z,11.20
2018-09-22T18:53:29.620Z,11.20
2018-09-22T18:55:58.238Z,11.20
2018-09-22T18:58:26.858Z,11.20
2018-09-22T19:00:57.119Z,11.20
2018-09-22T19:03:25.899Z,11.20
2018-09-22T19:05:54.796Z,11.10
2018-09-22T19:08:23.419Z,11.20
2018-09-22T19:10:52.094Z,11.20
2018-09-22T19:13:29.652Z,11.20
2018-09-22T19:16:01.963Z,11.20
2018-09-22T19:18:34.398Z,11.20
2018-09-22T19:21:06.974Z,11.20
2018-09-22T19:23:41.495Z,11.20
2018-09-22T19:26:15.813Z,11.30
2018-09-22T19:28:57.406Z,11.20
2018-09-22T19:31:32.638Z,11.20
2018-09-22T19:34:05.583Z,11.20
2018-09-22T19:36:43.907Z,11.20
2018-09-22T19:39:17.511Z,11.20
2018-09-22T19:41:55.285Z,11.20
2018-09-22T19:44:28.219Z,11.20
2018-09-22T19:47:05.485Z,11.20
2018-09-22T19:49:38.514Z,11.20
2018-09-22T19:52:12.225Z,11.10
2018-09-22T19:54:41.081Z,11.20
2018-09-22T19:57:09.679Z,11.10
2018-09-22T19:59:38.301Z,11.20
2018-09-22T20:02:07.221Z,11.10
2018-09-22T20:04:36.169Z,11.10
2018-09-22T20:07:04.829Z,11.10
2018-09-22T20:09:33.452Z,11.10
2018-09-22T20:12:02.101Z,11.10
2018-09-22T20:14:31.933Z,11.10
2018-09-22T20:17:00.543Z,11.10
2018-09-22T20:19:30.253Z,11.10
2018-09-22T20:21:58.885Z,11.10
2018-09-22T20:24:28.152Z,11.10
2018-09-22T20:26:57.173Z,11.10
2018-09-22T20:29:26.414Z,11.10
2018-09-22T20:31:55.142Z,11.10
2018-09-22T20:34:23.793Z,11.10
2018-09-22T20:36:53.157Z,11.10
2018-09-22T20:39:28.570Z,11.10
2018-09-22T20:41:57.173Z,11.10
2018-09-22T20:44:25.808Z,11.10
2018-09-22T20:46:54.406Z,11.10
2018-09-22T20:49:23.050Z,11.10
2018-09-22T20:51:51.681Z,11.00
2018-09-22T20:54:20.322Z,11.10
2018-09-22T20:56:48.958Z,11.10
2018-09-22T20:59:17.531Z,11.10
2018-09-22T21:01:46.153Z,11.10
2018-09-22T21:04:14.757Z,11.00
2018-09-22T21:06:43.408Z,11.10
2018-09-22T21:09:12.047Z,11.00
2018-09-22T21:11:40.889Z,11.00
2018-09-22T21:14:09.458Z,11.00
2018-09-22T21:16:38.117Z,11.00
2018-09-22T21:19:06.695Z,11.10
2018-09-22T21:21:35.322Z,11.10
2018-09-22T21:24:04.061Z,11.10
2018-09-22T21:26:32.800Z,11.10
2018-09-22T21:29:01.599Z,11.10
2018-09-22T21:31:30.253Z,11.10
2018-09-22T21:33:58.870Z,11.10
2018-09-22T21:36:27.427Z,11.10
2018-09-22T21:38:56.026Z,11.10
2018-09-22T21:41:24.616Z,11.10
2018-09-22T21:43:53.213Z,11.00
2018-09-22T21:46:21.790Z,11.10
2018-09-22T21:48:50.393Z,11.00
2018-09-22T21:51:18.973Z,11.10
2018-09-22T21:53:47.658Z,11.10
2018-09-22T21:56:16.297Z,11.10
2018-09-22T21:58:44.870Z,11.10
2018-09-22T22:01:18.618Z,11.00
2018-09-22T22:03:47.202Z,11.10
2018-09-22T22:06:15.814Z,11.10
2018-09-22T22:08:44.527Z,11.10
2018-09-22T22:11:13.195Z,11.00
2018-09-22T22:13:41.783Z,11.00
2018-09-22T22:16:10.931Z,11.00
2018-09-22T22:18:39.553Z,11.00
2018-09-22T22:21:08.166Z,11.00
2018-09-22T22:23:37.361Z,11.00
2018-09-22T22:26:05.986Z,11.00
2018-09-22T22:28:34.593Z,10.90
2018-09-22T22:31:03.243Z,10.90
2018-09-22T22:33:31.925Z,10.90
2018-09-22T22:36:00.625Z,11.00
2018-09-22T22:38:29.324Z,10.90
2018-09-22T22:40:57.991Z,10.90
2018-09-22T22:43:26.690Z,10.90
2018-09-22T22:45:55.261Z,10.90
2018-09-22T22:48:23.866Z,10.90
2018-09-22T22:50:52.459Z,10.80
2018-09-22T22:53:21.141Z,10.80
2018-09-22T22:55:49.766Z,10.80
2018-09-22T22:58:18.373Z,10.80
2018-09-22T23:00:46.938Z,10.80
2018-09-22T23:03:15.574Z,10.80
2018-09-22T23:05:44.165Z,10.80
2018-09-22T23:08:12.790Z,10.80
2018-09-22T23:10:41.486Z,10.80
2018-09-22T23:13:10.082Z,10.80
2018-09-22T23:15:38.666Z,10.70
2018-09-22T23:18:07.277Z,10.80
2018-09-22T23:20:35.941Z,10.70
2018-09-22T23:23:04.541Z,10.80
2018-09-22T23:25:33.185Z,10.80
2018-09-22T23:28:01.844Z,10.70
2018-09-22T23:30:30.574Z,10.80
2018-09-22T23:32:59.266Z,10.70
2018-09-22T23:35:27.978Z,10.70
2018-09-22T23:37:56.605Z,10.80
2018-09-22T23:40:25.269Z,10.70
2018-09-22T23:42:53.950Z,10.80
2018-09-22T23:45:22.653Z,10.80
2018-09-22T23:47:51.284Z,10.70
2018-09-22T23:50:20.018Z,10.80
2018-09-22T23:52:48.606Z,10.70
2018-09-22T23:55:17.218Z,10.70
2018-09-22T23:57:45.792Z,10.70
